Time,TemperatureF,DewpointF,PressureIn,WindDirection,WindDirectionDegrees,WindSpeedMPH,WindSpeedGustMPH,Humidity,HourlyPrecipIn,Conditions,Clouds,dailyrainin,SoftwareType,DateUTC
2013-05-08 00:02:00,57.0,55.0,-100.00,SSW,200,0.0,3.0,93,0.00,,,0.00,,2013-05-08 05:02:00,
2013-05-08 00:12:00,58.0,55.0,-100.00,NE,35,0.0,0.0,93,0.00,,,0.00,,2013-05-08 05:12:00,
2013-05-08 00:22:00,57.0,55.0,-100.00,NNE,30,0.0,3.0,93,0.00,,,0.00,,2013-05-08 05:22:00,
2013-05-08 00:32:00,57.0,55.0,-100.00,ESE,120,1.0,2.0,94,0.00,,,0.00,,2013-05-08 05:32:00,
2013-05-08 00:42:00,57.0,55.0,-100.00,SE,125,0.0,2.0,94,0.00,,,0.00,,2013-05-08 05:42:00,
2013-05-08 00:52:00,56.0,55.0,-100.00,NW,320,2.0,5.0,96,0.00,,,0.00,,2013-05-08 05:52:00,
2013-05-08 01:01:00,56.0,55.0,-100.00,West,280,1.0,2.0,96,0.00,,,0.00,,2013-05-08 06:01:00,
2013-05-08 01:12:00,56.0,55.0,-100.00,WNW,295,1.0,2.0,96,0.00,,,0.00,,2013-05-08 06:12:00,
2013-05-08 01:21:00,56.0,55.0,-100.00,WSW,240,2.0,5.0,96,0.00,,,0.00,,2013-05-08 06:21:00,
2013-05-08 01:32:00,56.0,55.0,-100.00,ESE,120,1.0,2.0,96,0.00,,,0.00,,2013-05-08 06:32:00,
2013-05-08 01:41:00,56.0,55.0,-100.00,SE,145,4.0,4.0,96,0.00,,,0.00,,2013-05-08 06:41:00,
2013-05-08 01:52:00,56.0,55.0,-100.00,SSE,155,4.0,5.0,96,0.00,,,0.00,,2013-05-08 06:52:00,
2013-05-08 02:01:00,56.0,55.0,-100.00,SE,135,4.0,4.0,96,0.00,,,0.00,,2013-05-08 07:01:00,
2013-05-08 02:11:00,56.0,55.0,-100.00,ESE,115,4.0,6.0,96,0.00,,,0.00,,2013-05-08 07:11:00,
2013-05-08 02:21:00,55.0,55.0,-100.00,SE,145,9.0,10.0,96,0.00,,,0.00,,2013-05-08 07:21:00,
2013-05-08 02:31:00,56.0,55.0,-100.00,SE,140,9.0,10.0,96,0.00,,,0.00,,2013-05-08 07:31:00,
2013-05-08 02:42:00,55.0,55.0,-100.00,SE,140,11.0,11.0,96,0.00,,,0.00,,2013-05-08 07:42:00,
2013-05-08 02:52:00,55.0,54.0,-100.00,SE,135,9.0,11.0,96,0.00,,,0.00,,2013-05-08 07:52:00,
2013-05-08 03:01:00,55.0,54.0,-100.00,SE,135,7.0,9.0,96,0.00,,,0.00,,2013-05-08 08:01:00,
2013-05-08 03:11:00,56.0,55.0,-100.00,SE,135,8.0,9.0,95,0.00,,,0.00,,2013-05-08 08:11:00,
2013-05-08 03:21:00,55.0,54.0,-100.00,SE,125,7.0,9.0,95,0.00,,,0.00,,2013-05-08 08:21:00,
2013-05-08 03:31:00,55.0,54.0,-100.00,SE,130,7.0,9.0,96,0.00,,,0.00,,2013-05-08 08:31:00,
2013-05-08 03:42:00,55.0,54.0,-100.00,SE,140,10.0,11.0,96,0.00,,,0.00,,2013-05-08 08:42:00,
2013-05-08 03:51:00,55.0,54.0,-100.00,SE,135,7.0,11.0,97,0.00,,,0.00,,2013-05-08 08:51:00,
2013-05-08 04:02:00,55.0,54.0,-100.00,ESE,115,1.0,9.0,97,0.00,,,0.00,,2013-05-08 09:02:00,
2013-05-08 04:11:00,54.0,54.0,-100.00,WSW,240,0.0,3.0,97,0.00,,,0.00,,2013-05-08 09:11:00,
2013-05-08 04:21:00,54.0,54.0,-100.00,South,170,1.0,1.0,97,0.00,,,0.00,,2013-05-08 09:21:00,
2013-05-08 04:32:00,54.0,54.0,-100.00,SE,145,4.0,4.0,97,0.00,,,0.00,,2013-05-08 09:32:00,
2013-05-08 04:42:00,55.0,54.0,-100.00,SE,125,5.0,6.0,98,0.00,,,0.00,,2013-05-08 09:42:00,
2013-05-08 04:52:00,54.0,54.0,-100.00,SE,135,6.0,7.0,98,0.00,,,0.00,,2013-05-08 09:52:00,
2013-05-08 05:02:00,55.0,54.0,-100.00,SE,135,7.0,7.0,98,0.00,,,0.00,,2013-05-08 10:02:00,
2013-05-08 08:21:00,56.0,55.0,-100.00,SE,130,9.0,12.0,99,0.00,,,0.00,,2013-05-08 13:21:00,
2013-05-08 08:32:00,56.0,55.0,-100.00,SE,140,12.0,14.0,99,0.00,,,0.00,,2013-05-08 13:32:00,
2013-05-08 08:42:00,56.0,55.0,-100.00,SE,140,10.0,13.0,99,0.00,,,0.00,,2013-05-08 13:42:00,
2013-05-08 08:52:00,56.0,55.0,-100.00,SE,140,8.0,11.0,99,0.00,,,0.00,,2013-05-08 13:52:00,
2013-05-08 09:02:00,56.0,55.0,-100.00,SE,135,9.0,11.0,99,0.00,,,0.00,,2013-05-08 14:02:00,
2013-05-08 09:11:00,56.0,55.0,-100.00,SE,140,9.0,11.0,99,0.00,,,0.00,,2013-05-08 14:11:00,
2013-05-08 09:21:00,56.0,55.0,-100.00,SE,140,9.0,12.0,99,0.00,,,0.00,,2013-05-08 14:21:00,
2013-05-08 09:31:00,56.0,55.0,-100.00,SE,140,9.0,12.0,99,0.00,,,0.00,,2013-05-08 14:31:00,
2013-05-08 09:42:00,56.0,55.0,-100.00,SE,140,11.0,13.0,99,0.00,,,0.00,,2013-05-08 14:42:00,
2013-05-08 09:51:00,56.0,55.0,-100.00,SE,140,10.0,12.0,99,0.00,,,0.00,,2013-05-08 14:51:00,
2013-05-08 10:02:00,56.0,55.0,-100.00,SE,140,7.0,10.0,99,0.00,,,0.00,,2013-05-08 15:02:00,
2013-05-08 10:11:00,56.0,55.0,-100.00,ESE,120,6.0,11.0,99,0.00,,,0.00,,2013-05-08 15:11:00,
2013-05-08 10:21:00,56.0,55.0,-100.00,ESE,115,4.0,6.0,99,0.00,,,0.00,,2013-05-08 15:21:00,
2013-05-08 10:33:00,56.0,55.0,-100.00,SE,135,3.0,4.0,99,0.00,,,0.00,,2013-05-08 15:33:00,
2013-05-08 12:02:00,57.0,57.0,-100.00,ESE,120,7.0,10.0,99,0.00,,,0.01,,2013-05-08 17:02:00,
2013-05-08 12:22:00,57.0,57.0,-100.00,SSE,160,13.0,18.0,99,0.00,,,0.01,,2013-05-08 17:22:00,
2013-05-08 13:21:00,57.0,57.0,-100.00,SSE,155,12.0,16.0,99,0.00,,,0.01,,2013-05-08 18:21:00,
2013-05-08 13:31:00,58.0,57.0,-100.00,SSE,155,13.0,17.0,99,0.00,,,0.01,,2013-05-08 18:31:00,
2013-05-08 14:11:00,59.0,59.0,-100.00,SSE,155,12.0,16.0,99,0.00,,,0.01,,2013-05-08 19:11:00,
2013-05-08 14:32:00,59.0,59.0,-100.00,SE,140,13.0,16.0,99,0.00,,,0.01,,2013-05-08 19:32:00,
2013-05-08 14:42:00,59.0,59.0,-100.00,SSE,150,12.0,18.0,99,0.00,,,0.01,,2013-05-08 19:42:00,
2013-05-08 14:52:00,59.0,59.0,-100.00,SE,145,12.0,16.0,99,0.00,,,0.01,,2013-05-08 19:52:00,
2013-05-08 15:02:00,59.0,59.0,-100.00,SE,135,11.0,15.0,99,0.00,,,0.01,,2013-05-08 20:02:00,
2013-05-08 15:11:00,60.0,59.0,-100.00,SE,140,12.0,14.0,99,0.00,,,0.01,,2013-05-08 20:11:00,
2013-05-08 15:22:00,60.0,59.0,-100.00,SE,145,9.0,12.0,99,0.00,,,0.01,,2013-05-08 20:22:00,
2013-05-08 15:32:00,59.0,59.0,-100.00,SE,140,9.0,12.0,99,0.00,,,0.01,,2013-05-08 20:32:00,
2013-05-08 15:42:00,60.0,59.0,-100.00,SE,135,7.0,11.0,99,0.00,,,0.01,,2013-05-08 20:42:00,
2013-05-08 15:51:00,60.0,59.0,-100.00,ESE,115,9.0,12.0,99,0.00,,,0.01,,2013-05-08 20:51:00,
2013-05-08 16:21:00,61.0,61.0,-100.00,SE,135,12.0,16.0,98,0.00,,,0.01,,2013-05-08 21:21:00,
2013-05-08 16:33:00,61.0,61.0,-100.00,SE,125,11.0,15.0,98,0.00,,,0.01,,2013-05-08 21:33:00,
2013-05-08 16:43:00,61.0,61.0,-100.00,SE,135,11.0,12.0,98,0.00,,,0.01,,2013-05-08 21:43:00,
2013-05-08 16:52:00,61.0,61.0,-100.00,ESE,120,10.0,12.0,98,0.00,,,0.01,,2013-05-08 21:52:00,
2013-05-08 17:02:00,61.0,61.0,-100.00,SE,130,10.0,12.0,98,0.00,,,0.01,,2013-05-08 22:02:00,
2013-05-08 17:12:00,62.0,61.0,-100.00,ESE,120,11.0,14.0,98,0.00,,,0.01,,2013-05-08 22:12:00,
2013-05-08 17:33:00,61.0,61.0,-100.00,ESE,115,11.0,14.0,97,0.00,,,0.01,,2013-05-08 22:33:00,
2013-05-08 17:42:00,61.0,61.0,-100.00,ESE,120,12.0,16.0,97,0.00,,,0.01,,2013-05-08 22:42:00,
2013-05-08 17:52:00,62.0,61.0,-100.00,ESE,115,7.0,12.0,97,0.00,,,0.01,,2013-05-08 22:52:00,
2013-05-08 18:11:00,62.0,61.0,-100.00,East,95,11.0,14.0,97,0.00,,,0.01,,2013-05-08 23:11:00,
2013-05-08 18:22:00,62.0,61.0,-100.00,East,90,11.0,14.0,97,0.00,,,0.01,,2013-05-08 23:22:00,
2013-05-08 18:32:00,62.0,61.0,-100.00,ESE,115,9.0,12.0,97,0.00,,,0.01,,2013-05-08 23:32:00,
2013-05-08 18:42:00,61.0,61.0,-100.00,East,100,11.0,13.0,97,0.00,,,0.01,,2013-05-08 23:42:00,
2013-05-08 18:52:00,61.0,61.0,-100.00,East,95,12.0,14.0,97,0.00,,,0.01,,2013-05-08 23:52:00,
2013-05-08 19:02:00,60.0,59.0,-100.00,East,100,12.0,14.0,97,0.00,,,0.01,,2013-05-09 00:02:00,
2013-05-08 19:21:00,60.0,59.0,-100.00,East,90,11.0,17.0,98,0.00,,,0.01,,2013-05-09 00:21:00,
2013-05-08 19:32:00,60.0,59.0,-100.00,East,95,11.0,14.0,98,0.00,,,0.01,,2013-05-09 00:32:00,
2013-05-08 19:42:00,59.0,59.0,-100.00,East,90,11.0,14.0,98,0.00,,,0.01,,2013-05-09 00:42:00,
2013-05-08 20:22:00,58.0,57.0,-100.00,East,85,10.0,16.0,98,0.00,,,0.01,,2013-05-09 01:22:00,
2013-05-08 20:32:00,58.0,57.0,-100.00,East,80,10.0,16.0,98,0.00,,,0.01,,2013-05-09 01:32:00,
2013-05-08 20:42:00,58.0,57.0,-100.00,ENE,75,9.0,14.0,98,0.00,,,0.01,,2013-05-09 01:42:00,
2013-05-08 20:52:00,57.0,57.0,-100.00,ENE,75,10.0,14.0,98,0.00,,,0.01,,2013-05-09 01:52:00,
2013-05-08 21:02:00,57.0,57.0,-100.00,ENE,60,11.0,13.0,98,0.00,,,0.01,,2013-05-09 02:02:00,
2013-05-08 21:11:00,57.0,57.0,-100.00,ENE,60,12.0,15.0,98,0.00,,,0.01,,2013-05-09 02:11:00,
2013-05-08 21:21:00,57.0,57.0,-100.00,ENE,65,10.0,15.0,99,0.00,,,0.01,,2013-05-09 02:21:00,
2013-05-08 22:43:00,56.0,55.0,-100.00,ENE,65,9.0,14.0,99,0.00,,,0.01,,2013-05-09 03:43:00,
2013-05-08 22:52:00,56.0,55.0,-100.00,ENE,60,11.0,17.0,99,0.00,,,0.01,,2013-05-09 03:52:00,
2013-05-08 23:03:00,56.0,55.0,-100.00,NE,55,13.0,16.0,99,0.00,,,0.01,,2013-05-09 04:03:00,
2013-05-08 23:12:00,56.0,55.0,-100.00,NE,50,12.0,16.0,99,0.00,,,0.01,,2013-05-09 04:12:00,
2013-05-08 23:23:00,56.0,55.0,-100.00,ENE,60,10.0,14.0,99,0.00,,,0.01,,2013-05-09 04:23:00,
2013-05-08 23:33:00,56.0,55.0,-100.00,NE,55,9.0,12.0,99,0.00,,,0.01,,2013-05-09 04:33:00,
2013-05-08 23:43:00,56.0,55.0,-100.00,NE,55,11.0,14.0,99,0.00,,,0.01,,2013-05-09 04:43:00,
2013-05-08 23:52:00,56.0,55.0,-100.00,NE,55,9.0,12.0,99,0.00,,,0.01,,2013-05-09 04:52:00,